Weather at Prilozje - Metlika

Public forecast

Using degrees Celsius for public forecast. Weather courtesy of forecast.io.

Closest aviation weather report (METAR) to Prilozje - Metlika

Closest report is Cerklje Airport, 21.7 nm (40.2 km) NNE. Retrieved 2022/06/29 09:30 UTC (0 seconds ago):

LJCE 290930Z 06008KT 010V110 CAVOK 31/16 Q1011 RMK BLU

Closest aviation forecast (TAF) to Prilozje - Metlika

Closest forecast is Zagreb Airport, 35.1 nm (65.0 km) ENE. Retrieved 2022/06/29 06:27 UTC (3 hours ago):

TAF LDZA 290525Z 2906/3006 06006KT CAVOK TX33/2913Z TN19/3003Z PROB40 TEMPO 2915/2920 32025KT TSRA SCT050CB BECMG 2916/2918 22005KT